5 day graph

You are here

Error message

  • Notice: Trying to access array offset on value of type int in DrupalRequestSanitizer::stripDangerousValues() (line 102 of /home/twolittl/public_html/cms/includes/request-sanitizer.inc).
  • Notice: Trying to access array offset on value of type int in DrupalRequestSanitizer::stripDangerousValues() (line 102 of /home/twolittl/public_html/cms/includes/request-sanitizer.inc).
  • Notice: Trying to access array offset on value of type int in DrupalRequestSanitizer::stripDangerousValues() (line 102 of /home/twolittl/public_html/cms/includes/request-sanitizer.inc).
  • Notice: Trying to access array offset on value of type int in DrupalRequestSanitizer::stripDangerousValues() (line 102 of /home/twolittl/public_html/cms/includes/request-sanitizer.inc).
  • Notice: Trying to access array offset on value of type int in DrupalRequestSanitizer::stripDangerousValues() (line 102 of /home/twolittl/public_html/cms/includes/request-sanitizer.inc).
  • Notice: Trying to access array offset on value of type int in DrupalRequestSanitizer::stripDangerousValues() (line 102 of /home/twolittl/public_html/cms/includes/request-sanitizer.inc).
  • Notice: Trying to access array offset on value of type int in DrupalRequestSanitizer::stripDangerousValues() (line 102 of /home/twolittl/public_html/cms/includes/request-sanitizer.inc).
  • Notice: Trying to access array offset on value of type int in DrupalRequestSanitizer::stripDangerousValues() (line 102 of /home/twolittl/public_html/cms/includes/request-sanitizer.inc).
  • Deprecated function: Function get_magic_quotes_gpc() is deprecated in phpMyEdit->get_cgi_var() (line 1773 of /home/twolittl/public_html/phpMyEdit.class.php).
  • Deprecated function: implode(): Passing glue string after array is deprecated. Swap the parameters in drupal_get_feeds() (line 394 of /home/twolittl/public_html/cms/includes/common.inc).

Hive Data

Page: 1 of 16645  Records: 998690

Row Date Time Hive Temp Hive Humidity Outside Temp Outside Humidity Bottom Board Temp Outside Wall Temp Electronics Temp Light Levels inHG Fan Heat Cover Notes
Clear Sorted By: Electronics Temp descending, Row ascending, Outside Wall Temp ascending
View 119557 Aug 11 2014 3:57:58pm 99.14 31 110.3 23 100.4 113.45 120.2 947 29.12 1 0 0 NA
View 119558 Aug 11 2014 3:59:00pm 99.32 31 110.48 22 100.85 113 120.2 952 29.12 1 0 0 NA
View 119559 Aug 11 2014 3:59:59pm 99.32 31 110.48 23 100.85 113.45 120.2 949 29.12 1 0 0 NA
View 119560 Aug 11 2014 4:01:01pm 99.32 32 110.66 24 100.85 113.9 120.2 951 29.12 1 0 0 NA
View 119561 Aug 11 2014 4:02:02pm 99.32 30 110.84 24 100.85 113.9 120.2 951 29.13 1 0 0 NA
View 119562 Aug 11 2014 4:03:04pm 99.5 31 110.84 23 100.85 113.9 120.2 946 29.12 1 0 0 NA
View 119563 Aug 11 2014 4:04:05pm 99.5 33 111.02 25 100.85 113.9 120.2 950 29.13 1 0 0 NA
View 119564 Aug 11 2014 4:05:05pm 99.5 31 111.02 23 100.85 113.9 120.2 949 29.12 1 0 0 NA
View 119565 Aug 11 2014 4:06:06pm 99.5 31 111.2 23 100.85 113.45 120.2 947 29.12 1 0 0 NA
View 119566 Aug 11 2014 4:07:07pm 99.68 32 111.02 23 100.85 113 120.2 923 29.12 1 0 0 NA
View 119567 Aug 11 2014 4:08:09pm 99.68 32 110.84 23 100.85 112.55 120.2 943 29.12 1 0 0 NA
View 119568 Aug 11 2014 4:09:10pm 99.68 32 110.66 23 100.85 112.55 120.2 936 29.12 1 0 0 NA
View 119569 Aug 11 2014 4:10:10pm 99.68 32 110.3 23 100.85 112.1 120.2 933 29.12 1 0 0 NA
View 119570 Aug 11 2014 4:11:11pm 99.68 33 110.12 24 100.85 112.1 120.2 938 29.12 1 0 0 NA
View 119571 Aug 11 2014 4:12:13pm 99.68 34 109.94 24 100.85 112.1 120.2 927 29.12 1 0 0 NA
View 119572 Aug 11 2014 4:13:14pm 99.68 34 109.94 24 100.85 112.1 120.2 939 29.12 1 0 0 NA
View 119573 Aug 11 2014 4:14:14pm 99.68 35 109.94 25 100.85 112.1 120.2 931 29.12 1 0 0 NA
View 119574 Aug 11 2014 4:15:15pm 99.68 32 109.94 24 100.85 111.65 120.2 909 29.12 1 0 0 NA
View 119575 Aug 11 2014 4:16:17pm 99.68 34 109.76 25 100.85 111.2 120.2 927 29.12 1 0 0 NA
View 119576 Aug 11 2014 4:17:18pm 99.68 33 109.58 25 100.85 111.2 120.2 921 29.12 1 0 0 NA
View 119577 Aug 11 2014 4:18:19pm 99.68 33 109.4 26 100.85 110.75 120.2 920 29.12 1 0 0 NA
View 119578 Aug 11 2014 4:19:19pm 99.68 32 109.04 24 100.85 110.3 120.2 909 29.12 1 0 0 NA
View 119579 Aug 11 2014 4:20:21pm 99.68 32 109.04 24 100.85 109.85 120.2 909 29.12 1 0 0 NA
View 119580 Aug 11 2014 4:21:22pm 99.68 32 108.68 23 100.85 109.4 120.2 884 29.12 1 0 0 NA
View 119581 Aug 11 2014 4:22:23pm 99.68 34 108.14 23 100.85 108.95 120.2 897 29.12 1 0 0 NA
View 119582 Aug 11 2014 4:23:23pm 99.5 32 107.78 23 100.85 108.5 120.2 894 29.12 1 0 0 NA
View 119583 Aug 11 2014 4:24:25pm 99.5 31 107.42 23 100.85 108.5 120.2 898 29.12 1 0 0 NA
View 119584 Aug 11 2014 4:25:26pm 99.32 32 107.06 25 100.85 108.05 120.2 871 29.12 1 0 0 NA
View 119585 Aug 11 2014 4:26:27pm 99.32 31 106.7 24 100.85 107.6 120.2 873 29.12 1 0 0 NA
View 109639 Aug 4 2014 3:06:44pm 102.74 29 106.34 24 97.7 109.4 118.4 961 29.22 1 0 0 NA
View 109640 Aug 4 2014 3:07:45pm 102.92 30 106.7 23 98.15 109.85 118.4 961 29.22 1 0 0 NA
View 109641 Aug 4 2014 3:08:47pm 102.92 32 106.7 24 98.15 109.85 118.4 961 29.22 1 0 0 NA
View 109642 Aug 4 2014 3:09:47pm 103.1 32 106.7 24 98.15 110.3 118.4 961 29.22 1 0 0 NA
View 109643 Aug 4 2014 3:10:48pm 103.1 30 107.06 25 98.15 110.3 118.4 961 29.22 1 0 0 NA
View 109644 Aug 4 2014 3:11:49pm 102.92 29 107.42 24 98.15 110.3 118.4 960 29.22 1 0 0 NA
View 109645 Aug 4 2014 3:12:51pm 102.74 29 107.6 25 98.15 110.3 118.4 961 29.22 1 0 0 NA
View 109646 Aug 4 2014 3:13:52pm 102.38 30 107.6 25 98.6 110.3 118.4 960 29.22 1 0 0 NA
View 109647 Aug 4 2014 3:14:52pm 102.2 32 107.78 24 98.6 109.85 118.4 960 29.22 1 0 0 NA
View 109648 Aug 4 2014 3:15:53pm 102.02 32 107.96 24 98.6 109.85 118.4 960 29.22 1 0 0 NA
View 109649 Aug 4 2014 3:16:55pm 101.84 32 107.96 24 98.6 109.85 118.4 960 29.22 1 0 0 NA
View 109650 Aug 4 2014 3:17:56pm 101.66 32 108.32 24 98.6 109.4 118.4 960 29.22 1 0 0 NA
View 109651 Aug 4 2014 3:18:57pm 101.66 33 108.32 23 98.6 109.4 118.4 960 29.22 1 0 0 NA
View 109652 Aug 4 2014 3:19:57pm 101.48 31 108.32 23 98.6 108.95 118.4 961 29.22 1 0 0 NA
View 109653 Aug 4 2014 3:20:58pm 101.3 31 108.5 24 98.6 108.95 118.4 960 29.22 1 0 0 NA
View 109654 Aug 4 2014 3:22:00pm 101.12 31 108.5 24 98.6 108.95 118.4 960 29.22 1 0 0 NA
View 109655 Aug 4 2014 3:23:01pm 100.94 32 108.32 25 98.6 108.95 118.4 960 29.22 1 0 0 NA
View 109656 Aug 4 2014 3:24:02pm 100.76 32 108.5 25 98.6 109.4 118.4 959 29.22 1 0 0 NA
View 109657 Aug 4 2014 3:25:02pm 100.58 32 108.68 23 98.6 108.95 118.4 953 29.22 1 0 0 NA
View 109658 Aug 4 2014 3:26:04pm 100.4 31 108.86 23 98.6 108.5 118.4 951 29.22 1 0 0 NA
View 109659 Aug 4 2014 3:27:05pm 100.04 31 108.68 22 99.05 108.5 118.4 947 29.22 1 0 0 NA
View 109660 Aug 4 2014 3:28:06pm 99.86 31 108.5 23 98.6 108.05 118.4 949 29.22 1 0 0 NA
View 109661 Aug 4 2014 3:29:06pm 99.68 30 108.32 23 99.05 108.05 118.4 959 29.22 1 0 0 NA
View 109662 Aug 4 2014 3:30:08pm 99.5 32 108.32 22 99.05 107.15 118.4 960 29.22 1 0 0 NA
View 109663 Aug 4 2014 3:31:09pm 99.32 31 108.14 22 98.6 107.6 118.4 959 29.22 1 0 0 NA
View 109664 Aug 4 2014 3:32:10pm 99.14 32 107.96 22 99.05 107.15 118.4 959 29.22 1 0 0 NA
View 109665 Aug 4 2014 3:33:12pm 99.14 32 107.96 23 99.05 107.15 118.4 959 29.22 1 0 0 NA
View 109666 Aug 4 2014 3:34:11pm 98.96 32 107.96 22 99.05 107.15 118.4 959 29.22 1 0 0 NA
View 109667 Aug 4 2014 3:35:13pm 98.78 32 107.96 22 99.05 107.15 118.4 959 29.22 1 0 0 NA
View 109668 Aug 4 2014 3:36:14pm 98.78 32 107.96 23 99.05 107.15 118.4 959 29.22 1 0 0 NA
View 109669 Aug 4 2014 3:37:16pm 98.6 32 107.96 22 99.05 107.15 118.4 959 29.22 1 0 0 NA